Goetsenhoven, Belgium

3:47 PM CEST on September 30, 2016 (GMT +0200)
Langveld | | Change Station

Elev 157 ft 50.80 °N, 4.98 °E | Updated 10 minutes ago

Mostly Cloudy
Mostly Cloudy
66.9 °F
Feels Like 66.9 °F
N
1.2
Wind Variable Wind from West
Gusts 3.7 mph

Today
High -- | Low -- °F
--% Chance of Precip.
Yesterday
High -- | Low -- °F
Precip. -- in
Pressure 29.98 in
Visibility 6.2 miles
Clouds Few 4000 ft
Mostly Cloudy 7000 ft
Dew Point 54 °F
Humidity 62%
Rainfall 0.00 in
Snow Depth Not available.
7:39 AM 7:19 PM
Waning Crescent, 0% visible
METAR EBBE 301325Z 22008KT 9999 FEW040 BKN070 16/08 Q1015 BLU BLU
Pressure 29.98 in
Visibility 6.2 miles
Clouds Few 4000 ft
Mostly Cloudy 7000 ft
Dew Point 54 °F
Humidity 62%
Rainfall 0.00 in
Snow Depth Not available.
7:39 AM 7:19 PM
Waning Crescent, 0% visible
METAR EBBE 301325Z 22008KT 9999 FEW040 BKN070 16/08 Q1015 BLU BLU

10-Day Weather Forecast

×

Almanac

Astronomy

Sep. 30, 2016 Rise Set
Actual Time
Civil Twilight
Nautical Twilight
Astronomical Twilight
Moon
Length of Visible Light
Length of Day
Tomorrow will be .
, % of the Moon is Illuminated

Today's Extremes

Country Highs Country Lows

Community

WunderPhotos

Upload Photos

1,942,711 photos uploaded!

WunderBlog® & News

Nearby

Air Quality

  Air Quality AQ Index Pollutant
Not available.

Snow Depth

Station Depth Elevation

Earthquake Activity

City Distance Mag. Time & Date
Minimum magnitude displayed is 2.5.

Coastal Water Temperatures

Place Temperature

Stations

Nearby Weather Stations

Station Location Temp. Windchill Dew Point Humidity Wind Precip. Elev Updated Type